Time;durP1;ratioP1;P1;durP2;ratioP2;P2;SDS_P1;SDS_P2;PMS_P1;PMS_P2;Temp;Humidity;BMP_temperature;BMP_pressure;BME280_temperature;BME280_humidity;BME280_pressure;Samples;Min_cycle;Max_cycle;Signal;HPM_P1;HPM_P2
2022/09/04 00:01:43;;;;;;;10.57;4.40;;;;;;;;;;5096343;28;20281;-79
2022/09/04 00:04:14;;;;;;;6.13;3.70;;;;;;;;;;5107098;28;20721;-80
2022/09/04 00:06:49;;;;;;;8.70;3.83;;;;;;;;;;5096198;28;20281;-80
2022/09/04 00:09:19;;;;;;;7.37;3.50;;;;;;;;;;5113352;28;20716;-80
2022/09/04 00:11:50;;;;;;;7.37;3.40;;;;;;;;;;5094483;28;20226;-80
2022/09/04 00:14:18;;;;;;;7.70;3.80;;;;;;;;;;5100188;28;20199;-79
2022/09/04 00:16:50;;;;;;;8.00;3.67;;;;;;;;;;5094789;28;20233;-80
2022/09/04 00:19:22;;;;;;;7.83;3.67;;;;;;;;;;5107458;28;20760;-80
2022/09/04 00:21:51;;;;;;;10.77;3.90;;;;;;;;;;5102781;28;20251;-79
2022/09/04 00:24:19;;;;;;;7.40;3.40;;;;;;;;;;5098679;28;20238;-79
2022/09/04 00:26:51;;;;;;;10.23;3.67;;;;;;;;;;5094039;28;20230;-80
2022/09/04 00:29:21;;;;;;;6.33;3.50;;;;;;;;;;5109433;28;20563;-79
2022/09/04 00:31:52;;;;;;;6.80;3.67;;;;;;;;;;5104220;28;20277;-79
2022/09/04 00:34:25;;;;;;;9.77;3.70;;;;;;;;;;5105631;28;20280;-80
2022/09/04 00:36:55;;;;;;;7.87;3.77;;;;;;;;;;5096258;28;20689;-80
2022/09/04 00:39:24;;;;;;;5.70;3.67;;;;;;;;;;5094397;28;20305;-79
2022/09/04 00:42:00;;;;;;;6.57;3.47;;;;;;;;;;5102911;28;20255;-80
2022/09/04 00:44:35;;;;;;;9.57;3.90;;;;;;;;;;5099613;28;20276;-79
2022/09/04 00:47:07;;;;;;;8.00;3.80;;;;;;;;;;5095461;28;20629;-79
2022/09/04 00:49:56;;;;;;;6.30;3.50;;;;;;;;;;5108188;28;20252;-80
2022/09/04 00:52:32;;;;;;;7.30;4.10;;;;;;;;;;5105472;28;20206;-79
2022/09/04 00:55:08;;;;;;;9.83;4.13;;;;;;;;;;5084279;28;20202;-79
2022/09/04 00:57:56;;;;;;;6.43;3.77;;;;;;;;;;5084587;28;20248;-79
2022/09/04 01:00:25;;;;;;;7.33;4.07;;;;;;;;;;5101713;28;20229;-79
2022/09/04 01:03:19;;;;;;;7.33;3.80;;;;;;;;;;5105899;28;20677;-79
2022/09/04 01:05:55;;;;;;;7.57;4.23;;;;;;;;;;5056589;28;20746;-80
2022/09/04 01:08:27;;;;;;;7.70;3.80;;;;;;;;;;5098392;28;20202;-79
2022/09/04 01:11:01;;;;;;;7.73;3.80;;;;;;;;;;5079697;28;20191;-79
2022/09/04 01:13:32;;;;;;;6.77;4.07;;;;;;;;;;5108099;28;20228;-79
2022/09/04 01:16:05;;;;;;;8.17;3.90;;;;;;;;;;5098572;28;20206;-79
2022/09/04 01:18:37;;;;;;;7.07;3.73;;;;;;;;;;5101520;28;20285;-79
2022/09/04 01:21:16;;;;;;;7.63;3.87;;;;;;;;;;5096081;28;20248;-79
2022/09/04 01:23:56;;;;;;;5.57;3.63;;;;;;;;;;5093533;28;20202;-78
2022/09/04 01:26:31;;;;;;;5.30;3.60;;;;;;;;;;5084181;28;20234;-79
2022/09/04 01:29:12;;;;;;;6.67;3.80;;;;;;;;;;5108267;28;20293;-79
2022/09/04 01:31:45;;;;;;;6.00;3.87;;;;;;;;;;5106676;28;20292;-80
2022/09/04 01:34:23;;;;;;;6.77;3.40;;;;;;;;;;5099491;28;20241;-80
2022/09/04 01:36:53;;;;;;;8.37;4.00;;;;;;;;;;5101045;28;20280;-79
2022/09/04 01:39:22;;;;;;;8.33;4.00;;;;;;;;;;5106774;28;20271;-79
2022/09/04 01:41:53;;;;;;;7.30;3.57;;;;;;;;;;5101450;28;20280;-79
2022/09/04 01:44:22;;;;;;;5.57;3.90;;;;;;;;;;5098351;28;20225;-79
2022/09/04 01:46:54;;;;;;;7.67;4.20;;;;;;;;;;5101118;28;20677;-80
2022/09/04 01:49:28;;;;;;;6.43;3.63;;;;;;;;;;5096857;28;20286;-79
2022/09/04 01:52:00;;;;;;;5.47;3.73;;;;;;;;;;5111900;28;20276;-79
2022/09/04 01:54:37;;;;;;;8.10;3.97;;;;;;;;;;5102848;28;20225;-79
2022/09/04 01:57:11;;;;;;;7.53;3.80;;;;;;;;;;5100865;28;20705;-80
2022/09/04 01:59:43;;;;;;;6.93;4.00;;;;;;;;;;5102244;28;20254;-79
2022/09/04 02:02:13;;;;;;;7.33;3.80;;;;;;;;;;5106976;28;20221;-80
2022/09/04 02:04:45;;;;;;;6.50;3.70;;;;;;;;;;5099988;28;20680;-80
2022/09/04 02:07:19;;;;;;;6.70;4.40;;;;;;;;;;5096109;28;20242;-79
2022/09/04 02:09:51;;;;;;;5.83;3.83;;;;;;;;;;5111977;28;20233;-79
2022/09/04 02:12:26;;;;;;;8.60;4.17;;;;;;;;;;5100246;28;20222;-79
2022/09/04 02:14:59;;;;;;;10.33;4.20;;;;;;;;;;5103395;28;20196;-79
2022/09/04 02:17:31;;;;;;;8.47;4.20;;;;;;;;;;5106589;28;20212;-80
2022/09/04 02:20:03;;;;;;;6.03;3.83;;;;;;;;;;5108936;28;20213;-80
2022/09/04 02:22:38;;;;;;;7.60;4.10;;;;;;;;;;5085871;28;20204;-80
2022/09/04 02:25:10;;;;;;;8.57;4.23;;;;;;;;;;5103122;28;20197;-79
2022/09/04 02:27:43;;;;;;;6.37;4.40;;;;;;;;;;5113521;28;20288;-79
2022/09/04 02:30:12;;;;;;;8.30;4.67;;;;;;;;;;5110953;28;20615;-79
2022/09/04 02:32:41;;;;;;;7.27;4.20;;;;;;;;;;5111282;28;20306;-80
2022/09/04 02:35:12;;;;;;;8.40;4.63;;;;;;;;;;5104951;28;20250;-78
2022/09/04 02:37:45;;;;;;;7.30;4.30;;;;;;;;;;5103137;28;20222;-80
2022/09/04 02:40:17;;;;;;;8.10;4.80;;;;;;;;;;5099055;28;20305;-80
2022/09/04 02:42:52;;;;;;;6.93;4.80;;;;;;;;;;5087321;28;20222;-79
2022/09/04 02:45:25;;;;;;;8.53;4.50;;;;;;;;;;5102449;28;20201;-79
2022/09/04 02:47:55;;;;;;;9.13;4.70;;;;;;;;;;5099267;28;20225;-79
2022/09/04 02:50:31;;;;;;;6.03;4.47;;;;;;;;;;5105133;28;20194;-79
2022/09/04 02:53:06;;;;;;;9.70;4.90;;;;;;;;;;5093840;28;20229;-79
2022/09/04 02:55:43;;;;;;;9.00;4.60;;;;;;;;;;5110288;28;20680;-79
2022/09/04 02:58:17;;;;;;;11.33;4.90;;;;;;;;;;5098540;28;20218;-79
2022/09/04 03:00:53;;;;;;;8.03;4.73;;;;;;;;;;5098633;28;20303;-79
2022/09/04 03:03:21;;;;;;;9.37;5.13;;;;;;;;;;5105686;28;20194;-80
2022/09/04 03:05:51;;;;;;;6.00;4.67;;;;;;;;;;5106596;28;20285;-79
2022/09/04 03:08:22;;;;;;;12.40;5.17;;;;;;;;;;5100583;28;20681;-80
2022/09/04 03:10:52;;;;;;;9.73;5.07;;;;;;;;;;5105113;28;20202;-79
2022/09/04 03:13:23;;;;;;;7.93;5.20;;;;;;;;;;5085254;28;20640;-79
2022/09/04 03:15:54;;;;;;;7.87;5.27;;;;;;;;;;5107195;28;20208;-80
2022/09/04 03:18:23;;;;;;;10.53;5.50;;;;;;;;;;5088012;28;20375;-79
2022/09/04 03:20:54;;;;;;;9.60;5.43;;;;;;;;;;5100682;28;20308;-79
2022/09/04 03:23:24;;;;;;;9.30;5.57;;;;;;;;;;5112980;28;20198;-80
2022/09/04 03:25:57;;;;;;;11.80;5.60;;;;;;;;;;5100782;28;20616;-79
2022/09/04 03:28:31;;;;;;;9.80;5.53;;;;;;;;;;5108908;28;20195;-79
2022/09/04 03:31:02;;;;;;;14.40;4.90;;;;;;;;;;5100024;28;20259;-80
2022/09/04 03:33:33;;;;;;;8.63;5.90;;;;;;;;;;5096094;28;20230;-80
2022/09/04 03:36:02;;;;;;;7.00;5.33;;;;;;;;;;5104739;28;20194;-79
2022/09/04 03:38:32;;;;;;;10.27;5.27;;;;;;;;;;5085293;28;20226;-79
2022/09/04 03:41:10;;;;;;;10.63;5.80;;;;;;;;;;5041238;28;1323543;-80
2022/09/04 03:43:44;;;;;;;11.03;5.70;;;;;;;;;;5101086;28;20648;-79
2022/09/04 03:46:19;;;;;;;10.43;5.80;;;;;;;;;;5098622;28;20202;-79
2022/09/04 03:48:52;;;;;;;8.27;5.10;;;;;;;;;;5093792;28;20248;-79
2022/09/04 03:51:24;;;;;;;10.40;5.23;;;;;;;;;;5092429;28;20203;-80
2022/09/04 03:53:58;;;;;;;8.27;5.30;;;;;;;;;;5104492;28;20260;-79
2022/09/04 03:56:33;;;;;;;6.57;5.57;;;;;;;;;;5092888;28;20245;-79
2022/09/04 03:59:07;;;;;;;7.13;5.67;;;;;;;;;;5099320;28;20304;-79
2022/09/04 04:01:42;;;;;;;9.77;5.80;;;;;;;;;;5099793;28;20275;-79
2022/09/04 04:04:33;;;;;;;12.70;6.00;;;;;;;;;;5096449;28;20229;-80
2022/09/04 04:07:06;;;;;;;9.60;5.40;;;;;;;;;;5094452;28;20689;-79
2022/09/04 04:09:41;;;;;;;10.57;6.20;;;;;;;;;;5108694;28;20673;-79
2022/09/04 04:12:17;;;;;;;11.30;6.00;;;;;;;;;;5095657;28;20197;-80
2022/09/04 04:14:53;;;;;;;7.63;6.07;;;;;;;;;;5104972;28;20211;-79
2022/09/04 04:17:38;;;;;;;10.03;6.03;;;;;;;;;;5110951;28;20201;-79
2022/09/04 04:20:15;;;;;;;10.47;5.80;;;;;;;;;;5103539;28;20246;-80
2022/09/04 04:22:57;;;;;;;12.93;6.50;;;;;;;;;;5104818;28;20252;-80
2022/09/04 04:25:30;;;;;;;9.70;5.87;;;;;;;;;;5097386;28;20226;-79
2022/09/04 04:28:03;;;;;;;10.33;6.30;;;;;;;;;;5096925;28;20672;-79
2022/09/04 04:30:37;;;;;;;10.13;6.53;;;;;;;;;;5095616;28;20219;-79
2022/09/04 04:33:22;;;;;;;7.13;5.90;;;;;;;;;;5098379;28;20546;-79
2022/09/04 04:35:53;;;;;;;8.73;6.33;;;;;;;;;;5093532;28;20233;-79
2022/09/04 04:38:27;;;;;;;11.00;6.20;;;;;;;;;;5102314;28;20255;-79
2022/09/04 04:41:09;;;;;;;9.57;6.00;;;;;;;;;;5099216;28;20245;-79
2022/09/04 04:43:44;;;;;;;7.53;6.20;;;;;;;;;;5093044;28;20226;-79
2022/09/04 04:46:15;;;;;;;8.10;6.20;;;;;;;;;;5093268;28;20221;-80
2022/09/04 04:49:00;;;;;;;9.50;6.00;;;;;;;;;;5089177;28;20281;-79
2022/09/04 04:51:39;;;;;;;9.43;6.37;;;;;;;;;;5098942;28;20203;-80
2022/09/04 04:54:14;;;;;;;10.17;6.60;;;;;;;;;;5107380;28;20198;-79
2022/09/04 04:56:45;;;;;;;11.13;6.23;;;;;;;;;;5098764;28;20194;-79
2022/09/04 04:59:22;;;;;;;10.37;6.10;;;;;;;;;;5084085;28;20314;-79
2022/09/04 05:01:56;;;;;;;8.00;6.07;;;;;;;;;;5088564;28;20265;-79
2022/09/04 05:04:29;;;;;;;9.80;6.53;;;;;;;;;;5090148;28;20228;-80
2022/09/04 05:06:59;;;;;;;8.60;5.70;;;;;;;;;;5104429;28;20568;-79
2022/09/04 05:09:33;;;;;;;8.63;6.30;;;;;;;;;;5092163;28;20198;-79
2022/09/04 05:12:04;;;;;;;8.67;6.40;;;;;;;;;;5098532;28;20205;-80
2022/09/04 05:14:39;;;;;;;8.83;6.07;;;;;;;;;;5096323;28;20221;-80
2022/09/04 05:17:12;;;;;;;10.93;6.47;;;;;;;;;;5103344;28;20232;-79
2022/09/04 05:19:42;;;;;;;8.37;6.27;;;;;;;;;;5111534;28;20280;-80
2022/09/04 05:22:13;;;;;;;9.40;6.07;;;;;;;;;;5112681;28;20253;-79
2022/09/04 05:24:45;;;;;;;10.27;6.03;;;;;;;;;;5112228;28;20241;-79
2022/09/04 05:27:18;;;;;;;8.83;6.10;;;;;;;;;;5099963;28;20289;-79
2022/09/04 05:29:50;;;;;;;9.40;6.30;;;;;;;;;;5105336;28;20229;-79
2022/09/04 05:32:21;;;;;;;7.83;6.10;;;;;;;;;;5093318;28;20190;-80
2022/09/04 05:34:57;;;;;;;10.80;6.10;;;;;;;;;;5108108;28;20691;-79
2022/09/04 05:37:29;;;;;;;8.07;6.03;;;;;;;;;;5104912;28;20232;-79
2022/09/04 05:40:01;;;;;;;8.17;6.10;;;;;;;;;;5105234;28;20233;-80
2022/09/04 05:42:49;;;;;;;9.63;6.17;;;;;;;;;;5105732;28;20274;-79
2022/09/04 05:45:24;;;;;;;10.37;5.70;;;;;;;;;;5098821;28;20653;-80
2022/09/04 05:47:59;;;;;;;9.90;6.00;;;;;;;;;;5100218;28;20229;-79
2022/09/04 05:50:44;;;;;;;10.50;5.80;;;;;;;;;;5095303;28;20567;-80
2022/09/04 05:53:40;;;;;;;7.07;5.83;;;;;;;;;;5087661;28;20217;-79
2022/09/04 05:56:22;;;;;;;12.57;5.90;;;;;;;;;;5098980;28;20194;-80
2022/09/04 05:58:54;;;;;;;8.43;5.57;;;;;;;;;;5073723;28;20254;-79
2022/09/04 06:01:27;;;;;;;7.63;5.70;;;;;;;;;;5095176;28;20590;-79
2022/09/04 06:04:08;;;;;;;9.47;5.27;;;;;;;;;;5094319;28;20229;-79
2022/09/04 06:06:39;;;;;;;8.27;5.33;;;;;;;;;;5110730;28;20236;-80
2022/09/04 06:09:20;;;;;;;9.63;5.30;;;;;;;;;;5105632;28;20240;-79
2022/09/04 06:12:02;;;;;;;9.00;5.70;;;;;;;;;;5094509;28;20194;-79
2022/09/04 06:14:36;;;;;;;8.93;5.70;;;;;;;;;;5105132;28;20277;-79
2022/09/04 06:17:21;;;;;;;8.33;5.33;;;;;;;;;;5101454;28;20236;-79
2022/09/04 06:20:09;;;;;;;9.70;5.70;;;;;;;;;;5094643;28;20202;-82
2022/09/04 06:22:45;;;;;;;7.13;5.03;;;;;;;;;;5096630;28;20639;-80
2022/09/04 06:25:16;;;;;;;9.47;5.67;;;;;;;;;;5100016;28;20233;-79
2022/09/04 06:27:51;;;;;;;9.23;5.50;;;;;;;;;;5088089;28;20226;-80
2022/09/04 06:30:18;;;;;;;8.50;5.40;;;;;;;;;;5093376;28;20240;-80
2022/09/04 06:33:02;;;;;;;8.23;5.43;;;;;;;;;;5103288;28;20229;-80
2022/09/04 06:35:39;;;;;;;7.37;5.07;;;;;;;;;;5101940;28;20238;-80
2022/09/04 06:38:15;;;;;;;5.60;4.63;;;;;;;;;;5108010;28;20197;-80
2022/09/04 06:40:49;;;;;;;9.40;4.40;;;;;;;;;;5110155;28;20253;-80
2022/09/04 06:43:20;;;;;;;9.18;4.38;;;;;;;;;;5110273;28;20277;-80
2022/09/04 06:45:55;;;;;;;6.32;4.22;;;;;;;;;;5091676;28;20237;-80
2022/09/04 06:48:28;;;;;;;8.57;4.20;;;;;;;;;;5095036;28;20202;-80
2022/09/04 06:51:06;;;;;;;6.43;4.15;;;;;;;;;;5097173;28;20222;-80
2022/09/04 06:53:41;;;;;;;7.95;3.80;;;;;;;;;;5095130;28;20226;-79
2022/09/04 06:56:26;;;;;;;6.68;3.60;;;;;;;;;;5095502;28;20282;-79
2022/09/04 06:59:07;;;;;;;7.03;3.63;;;;;;;;;;5092804;28;20222;-80
2022/09/04 07:01:39;;;;;;;8.02;3.17;;;;;;;;;;5099547;28;20318;-81
2022/09/04 07:04:13;;;;;;;9.05;3.50;;;;;;;;;;5108205;28;20197;-81
2022/09/04 07:06:50;;;;;;;6.00;3.13;;;;;;;;;;5095665;28;20198;-82
2022/09/04 07:09:19;;;;;;;5.90;3.20;;;;;;;;;;5096982;28;20230;-82
2022/09/04 07:11:59;;;;;;;5.53;3.10;;;;;;;;;;5105302;28;20269;-81
2022/09/04 07:14:35;;;;;;;6.60;3.33;;;;;;;;;;5097246;28;20204;-81
2022/09/04 07:17:08;;;;;;;5.60;3.30;;;;;;;;;;5115200;28;20229;-81
2022/09/04 07:19:46;;;;;;;4.43;3.15;;;;;;;;;;5115261;28;20322;-81
2022/09/04 07:22:28;;;;;;;8.35;3.20;;;;;;;;;;5111953;28;20640;-81
2022/09/04 07:25:02;;;;;;;6.68;3.28;;;;;;;;;;5092555;28;20335;-81
2022/09/04 07:27:43;;;;;;;7.40;3.42;;;;;;;;;;5110977;28;20262;-81
2022/09/04 07:30:11;;;;;;;4.72;3.10;;;;;;;;;;5105317;28;20230;-82
2022/09/04 07:32:41;;;;;;;5.88;3.30;;;;;;;;;;5113533;28;20228;-81
2022/09/04 07:35:12;;;;;;;3.90;2.50;;;;;;;;;;5101630;28;20229;-82
2022/09/04 07:37:45;;;;;;;5.00;3.00;;;;;;;;;;5094468;28;20318;-84
2022/09/04 07:40:16;;;;;;;7.25;2.83;;;;;;;;;;5093798;28;20234;-82
2022/09/04 07:42:49;;;;;;;6.05;3.10;;;;;;;;;;5101158;28;20279;-82
2022/09/04 07:45:22;;;;;;;5.15;3.10;;;;;;;;;;5088335;28;20700;-83
2022/09/04 07:47:54;;;;;;;4.40;2.58;;;;;;;;;;5114286;28;20233;-83
2022/09/04 07:50:25;;;;;;;4.20;2.58;;;;;;;;;;5102870;28;20288;-82
2022/09/04 07:53:03;;;;;;;4.88;3.00;;;;;;;;;;5093800;28;20233;-81
2022/09/04 07:55:41;;;;;;;7.10;2.90;;;;;;;;;;5093954;28;20198;-81
2022/09/04 07:58:19;;;;;;;6.18;2.75;;;;;;;;;;5099992;28;20311;-81
2022/09/04 08:00:51;;;;;;;4.93;2.95;;;;;;;;;;5097954;28;20193;-83
2022/09/04 08:03:24;;;;;;;4.93;2.70;;;;;;;;;;5094857;28;20276;-83
2022/09/04 08:05:56;;;;;;;8.20;3.03;;;;;;;;;;5104392;28;20243;-83
2022/09/04 08:08:31;;;;;;;4.97;2.40;;;;;;;;;;5094174;28;20238;-83
2022/09/04 08:11:07;;;;;;;5.80;2.55;;;;;;;;;;5095559;28;20240;-83
2022/09/04 08:13:48;;;;;;;8.35;2.78;;;;;;;;;;5092714;28;20194;-83
2022/09/04 08:16:19;;;;;;;5.18;2.50;;;;;;;;;;5108770;28;20284;-83
2022/09/04 08:19:00;;;;;;;5.85;2.78;;;;;;;;;;5101728;28;20225;-83
2022/09/04 08:21:29;;;;;;;5.50;2.35;;;;;;;;;;5108424;28;20926;-83
2022/09/04 08:24:12;;;;;;;5.00;2.45;;;;;;;;;;5111865;28;20209;-83
2022/09/04 08:26:48;;;;;;;4.30;2.40;;;;;;;;;;5098852;28;20281;-83
2022/09/04 08:29:25;;;;;;;3.83;2.17;;;;;;;;;;5089554;28;20665;-83
2022/09/04 08:32:02;;;;;;;3.70;2.55;;;;;;;;;;5096595;28;20248;-83
2022/09/04 08:34:41;;;;;;;4.78;2.17;;;;;;;;;;5092212;28;20208;-83
2022/09/04 08:37:13;;;;;;;5.53;2.60;;;;;;;;;;5112465;28;20197;-83
2022/09/04 08:39:47;;;;;;;2.90;2.20;;;;;;;;;;5097806;28;20267;-82
2022/09/04 08:42:31;;;;;;;4.40;2.58;;;;;;;;;;5094256;28;20261;-83
2022/09/04 08:45:16;;;;;;;5.22;2.60;;;;;;;;;;5102018;28;20229;-83
2022/09/04 08:48:09;;;;;;;5.22;2.50;;;;;;;;;;5103147;28;20194;-83
2022/09/04 08:51:01;;;;;;;7.80;2.28;;;;;;;;;;5087141;28;20222;-82
2022/09/04 08:53:52;;;;;;;5.70;2.63;;;;;;;;;;5098362;28;20757;-82
2022/09/04 08:56:22;;;;;;;4.10;2.25;;;;;;;;;;5094835;28;20236;-83
2022/09/04 08:59:04;;;;;;;6.72;2.40;;;;;;;;;;5098085;28;20257;-84
2022/09/04 09:01:57;;;;;;;7.57;2.67;;;;;;;;;;5093625;28;20210;-83
2022/09/04 09:04:53;;;;;;;4.53;2.08;;;;;;;;;;5099835;28;20234;-82
2022/09/04 09:07:34;;;;;;;4.40;2.17;;;;;;;;;;5081617;28;20253;-83
2022/09/04 09:10:16;;;;;;;6.70;2.13;;;;;;;;;;5104724;28;20285;-83
2022/09/04 09:13:13;;;;;;;7.15;2.33;;;;;;;;;;5087307;28;20293;-83
2022/09/04 09:16:07;;;;;;;4.65;2.05;;;;;;;;;;5018488;28;20220;-83
2022/09/04 09:18:37;;;;;;;4.53;2.33;;;;;;;;;;4988182;28;20232;-83
2022/09/04 09:21:07;;;;;;;4.50;2.13;;;;;;;;;;5030798;28;20224;-83
2022/09/04 09:23:52;;;;;;;5.20;3.03;;;;;;;;;;5029964;28;20279;-83
2022/09/04 09:26:28;;;;;;;4.20;2.22;;;;;;;;;;5029410;28;20208;-83
2022/09/04 09:29:13;;;;;;;3.97;1.88;;;;;;;;;;5015926;28;20667;-83
2022/09/04 09:32:00;;;;;;;5.85;2.17;;;;;;;;;;5010459;28;20759;-83
2022/09/04 09:34:42;;;;;;;3.20;2.00;;;;;;;;;;5010488;28;20196;-83
2022/09/04 09:37:33;;;;;;;4.88;2.20;;;;;;;;;;4952190;29;20234;-83
2022/09/04 09:40:19;;;;;;;3.72;2.20;;;;;;;;;;4959424;28;20198;-83
2022/09/04 09:43:00;;;;;;;4.30;2.50;;;;;;;;;;4956799;28;20679;-83
2022/09/04 09:45:38;;;;;;;3.85;1.98;;;;;;;;;;4950384;28;20207;-84
2022/09/04 09:48:23;;;;;;;3.20;1.92;;;;;;;;;;4937724;29;20252;-83
2022/09/04 09:51:07;;;;;;;3.88;2.10;;;;;;;;;;5005709;28;20284;-84
2022/09/04 09:53:52;;;;;;;4.60;2.10;;;;;;;;;;5034872;28;20207;-83
2022/09/04 09:56:35;;;;;;;4.15;2.10;;;;;;;;;;5019652;28;20288;-83
2022/09/04 09:59:17;;;;;;;3.70;1.90;;;;;;;;;;5023691;28;20311;-82
2022/09/04 10:01:57;;;;;;;5.55;2.30;;;;;;;;;;5023195;28;20286;-82
2022/09/04 10:04:38;;;;;;;5.22;2.47;;;;;;;;;;5038098;28;20196;-81
2022/09/04 10:07:24;;;;;;;5.05;2.22;;;;;;;;;;5033319;28;20207;-82
2022/09/04 10:10:02;;;;;;;4.88;2.08;;;;;;;;;;5025822;28;20291;-82
2022/09/04 10:12:49;;;;;;;4.32;2.00;;;;;;;;;;5030956;28;20296;-82
2022/09/04 10:15:31;;;;;;;3.55;2.15;;;;;;;;;;5077971;28;20283;-82
2022/09/04 10:18:13;;;;;;;3.13;1.95;;;;;;;;;;5031092;28;20585;-81
2022/09/04 10:21:09;;;;;;;5.72;2.50;;;;;;;;;;5026042;28;20201;-81
2022/09/04 10:23:48;;;;;;;4.93;2.25;;;;;;;;;;4994026;28;20224;-82
2022/09/04 10:26:39;;;;;;;4.38;2.58;;;;;;;;;;5031309;28;20258;-79
2022/09/04 10:29:11;;;;;;;6.55;2.60;;;;;;;;;;5022348;28;20236;-79
2022/09/04 10:31:53;;;;;;;5.53;2.50;;;;;;;;;;5022837;28;20232;-79
2022/09/04 10:34:33;;;;;;;5.13;2.03;;;;;;;;;;5026562;28;20567;-79
2022/09/04 10:37:05;;;;;;;4.15;2.30;;;;;;;;;;5031384;28;20295;-78
2022/09/04 10:42:31;;;;;;;4.13;1.70;;;;;;;;;;5029701;28;20781;-79
2022/09/04 10:45:11;;;;;;;4.53;2.10;;;;;;;;;;5018975;28;20207;-79
2022/09/04 10:47:50;;;;;;;4.40;1.80;;;;;;;;;;5003476;28;20243;-78
2022/09/04 10:50:45;;;;;;;5.53;2.00;;;;;;;;;;5018987;28;20242;-78
2022/09/04 10:53:19;;;;;;;3.00;1.77;;;;;;;;;;5028414;28;20196;-78
2022/09/04 10:56:02;;;;;;;4.30;1.92;;;;;;;;;;5081303;28;20343;-79
2022/09/04 10:58:32;;;;;;;5.93;2.38;;;;;;;;;;5094302;28;20308;-79
2022/09/04 11:01:26;;;;;;;4.72;2.75;;;;;;;;;;5099650;28;20226;-79
2022/09/04 11:04:02;;;;;;;4.43;1.80;;;;;;;;;;5054967;28;20221;-79
2022/09/04 11:06:51;;;;;;;4.20;1.67;;;;;;;;;;5106617;28;20197;-79
2022/09/04 11:09:48;;;;;;;3.90;1.95;;;;;;;;;;5093825;28;20631;-79
2022/09/04 11:12:27;;;;;;;2.55;1.88;;;;;;;;;;5030231;28;20219;-78
2022/09/04 11:15:20;;;;;;;3.97;1.60;;;;;;;;;;5040174;28;20196;-79
2022/09/04 11:18:02;;;;;;;3.33;1.63;;;;;;;;;;5039915;28;20274;-79
2022/09/04 11:20:49;;;;;;;2.80;1.60;;;;;;;;;;5029871;28;20288;-79
2022/09/04 11:23:28;;;;;;;4.30;2.00;;;;;;;;;;5044954;28;20243;-79
2022/09/04 11:26:13;;;;;;;4.88;1.75;;;;;;;;;;5035229;28;20201;-79
2022/09/04 11:28:50;;;;;;;3.17;1.77;;;;;;;;;;5039877;28;20750;-79
2022/09/04 11:31:43;;;;;;;4.85;2.00;;;;;;;;;;5029829;28;20223;-79
2022/09/04 11:34:32;;;;;;;3.47;1.80;;;;;;;;;;5021477;28;20223;-79
2022/09/04 11:37:17;;;;;;;3.53;1.90;;;;;;;;;;5028178;28;20203;-79
2022/09/04 11:40:05;;;;;;;3.10;1.70;;;;;;;;;;4972817;28;20687;-79
2022/09/04 11:42:41;;;;;;;4.30;2.20;;;;;;;;;;4979156;28;20242;-80
2022/09/04 11:45:27;;;;;;;3.08;1.90;;;;;;;;;;4978334;28;20757;-80
2022/09/04 11:48:12;;;;;;;5.00;1.75;;;;;;;;;;5035558;28;20695;-79
2022/09/04 11:50:49;;;;;;;3.25;1.63;;;;;;;;;;5037390;28;20200;-79
2022/09/04 11:53:34;;;;;;;2.40;1.80;;;;;;;;;;5031685;28;20198;-79
2022/09/04 11:56:19;;;;;;;2.75;1.67;;;;;;;;;;5033382;28;20266;-79
2022/09/04 11:58:56;;;;;;;4.25;2.22;;;;;;;;;;5031140;28;20307;-79
2022/09/04 12:01:29;;;;;;;5.75;1.92;;;;;;;;;;5029535;28;20702;-79
2022/09/04 12:04:11;;;;;;;4.35;3.60;;;;;;;;;;5014081;28;20747;-79
2022/09/04 12:06:45;;;;;;;4.72;3.50;;;;;;;;;;5037138;28;20250;-79
2022/09/04 12:09:29;;;;;;;5.18;2.00;;;;;;;;;;5033494;28;20201;-80
2022/09/04 12:12:11;;;;;;;5.20;2.30;;;;;;;;;;5029462;28;20800;-79
2022/09/04 12:14:58;;;;;;;4.68;2.13;;;;;;;;;;5030203;28;20294;-78
2022/09/04 12:17:50;;;;;;;2.97;1.90;;;;;;;;;;5064879;28;20199;-78
2022/09/04 12:20:24;;;;;;;3.92;1.88;;;;;;;;;;5093559;28;20273;-78
2022/09/04 12:23:09;;;;;;;3.38;2.03;;;;;;;;;;5101487;28;20253;-78
2022/09/04 12:25:52;;;;;;;4.70;2.40;;;;;;;;;;5094482;28;20285;-79
2022/09/04 12:28:37;;;;;;;5.78;3.20;;;;;;;;;;5104687;28;20225;-80
2022/09/04 12:31:12;;;;;;;3.03;2.63;;;;;;;;;;5020666;28;20211;-79
2022/09/04 12:33:46;;;;;;;3.45;2.20;;;;;;;;;;5016831;28;20321;-80
2022/09/04 12:36:28;;;;;;;3.58;2.47;;;;;;;;;;5010059;28;20201;-80
2022/09/04 12:39:10;;;;;;;3.33;1.90;;;;;;;;;;4958476;28;20269;-79
2022/09/04 12:41:40;;;;;;;3.50;1.83;;;;;;;;;;4958906;28;20269;-79
2022/09/04 12:44:12;;;;;;;7.00;2.28;;;;;;;;;;4952389;28;20250;-80
2022/09/04 12:47:00;;;;;;;3.92;1.90;;;;;;;;;;4955163;28;20286;-80
2022/09/04 12:49:36;;;;;;;3.47;1.90;;;;;;;;;;4957319;28;20273;-79
2022/09/04 12:52:08;;;;;;;3.33;1.90;;;;;;;;;;4957644;28;20234;-79
2022/09/04 12:54:38;;;;;;;3.63;2.03;;;;;;;;;;4963690;28;20285;-79
2022/09/04 12:57:14;;;;;;;4.60;2.20;;;;;;;;;;4966885;28;20594;-79
2022/09/04 12:59:51;;;;;;;5.07;2.03;;;;;;;;;;4964108;28;20207;-79
2022/09/04 13:02:26;;;;;;;3.15;1.90;;;;;;;;;;4957162;28;20380;-80
2022/09/04 13:05:01;;;;;;;4.47;2.00;;;;;;;;;;4961680;28;20213;-79
2022/09/04 13:07:35;;;;;;;3.15;2.00;;;;;;;;;;4973079;28;20202;-79
2022/09/04 13:10:09;;;;;;;3.30;2.17;;;;;;;;;;5038484;28;20283;-79
2022/09/04 13:12:41;;;;;;;4.85;2.35;;;;;;;;;;5036146;28;20196;-79
2022/09/04 13:15:27;;;;;;;5.20;2.08;;;;;;;;;;5047658;28;20696;-80
2022/09/04 13:17:58;;;;;;;5.35;2.17;;;;;;;;;;5078720;28;21010;-79
2022/09/04 13:20:33;;;;;;;2.90;1.88;;;;;;;;;;5087593;28;20713;-79
2022/09/04 13:23:09;;;;;;;4.43;2.00;;;;;;;;;;5096404;28;20286;-79
2022/09/04 13:25:44;;;;;;;3.35;2.05;;;;;;;;;;5081718;28;20230;-79
2022/09/04 13:28:18;;;;;;;3.00;1.95;;;;;;;;;;5093457;28;20272;-79
2022/09/04 13:30:48;;;;;;;3.92;2.30;;;;;;;;;;5092035;28;20201;-80
2022/09/04 13:33:23;;;;;;;3.65;2.10;;;;;;;;;;5098936;28;20217;-80
2022/09/04 13:35:57;;;;;;;4.68;2.10;;;;;;;;;;5097681;28;20205;-80
2022/09/04 13:38:41;;;;;;;3.03;2.35;;;;;;;;;;5099178;28;20203;-78
2022/09/04 13:41:24;;;;;;;3.50;1.92;;;;;;;;;;5091273;28;20266;-80
2022/09/04 13:44:00;;;;;;;4.15;2.20;;;;;;;;;;5082851;28;20225;-80
2022/09/04 13:46:30;;;;;;;3.97;2.17;;;;;;;;;;5101056;28;20201;-79
2022/09/04 13:49:01;;;;;;;2.85;2.10;;;;;;;;;;5089162;28;20211;-81
2022/09/04 13:51:31;;;;;;;2.72;2.30;;;;;;;;;;5096639;28;20669;-79
2022/09/04 13:54:03;;;;;;;6.30;2.42;;;;;;;;;;5106144;28;20191;-79
2022/09/04 13:56:34;;;;;;;2.78;2.10;;;;;;;;;;5115603;28;20285;-80
2022/09/04 13:59:07;;;;;;;3.33;2.20;;;;;;;;;;5091693;28;20297;-79
2022/09/04 14:01:36;;;;;;;2.75;2.40;;;;;;;;;;5106634;28;20263;-79
2022/09/04 14:04:07;;;;;;;4.28;2.15;;;;;;;;;;5097482;28;20225;-80
2022/09/04 14:06:36;;;;;;;3.88;2.22;;;;;;;;;;5104198;28;20642;-83
2022/09/04 14:09:04;;;;;;;4.22;2.25;;;;;;;;;;5097775;28;20197;-83
2022/09/04 14:11:42;;;;;;;3.25;2.15;;;;;;;;;;5102683;28;20206;-83
2022/09/04 14:14:26;;;;;;;2.60;2.30;;;;;;;;;;5101981;28;20229;-83
2022/09/04 14:16:54;;;;;;;4.85;2.20;;;;;;;;;;5092274;28;20198;-83
2022/09/04 14:19:35;;;;;;;2.92;1.95;;;;;;;;;;5089721;28;20323;-84
2022/09/04 14:22:13;;;;;;;4.03;2.10;;;;;;;;;;5095439;28;20259;-84
2022/09/04 14:24:42;;;;;;;3.60;1.98;;;;;;;;;;5096656;28;20305;-83
2022/09/04 14:27:14;;;;;;;2.47;1.95;;;;;;;;;;5106078;28;20226;-82
2022/09/04 14:29:53;;;;;;;3.47;2.25;;;;;;;;;;5109555;28;20575;-83
2022/09/04 14:32:23;;;;;;;2.80;1.80;;;;;;;;;;5098172;28;20263;-83
2022/09/04 14:35:01;;;;;;;5.10;2.20;;;;;;;;;;5097469;28;20920;-84
2022/09/04 14:37:48;;;;;;;2.25;2.03;;;;;;;;;;5103848;28;20194;-83
2022/09/04 14:40:18;;;;;;;2.67;1.95;;;;;;;;;;5097666;28;20233;-83
2022/09/04 14:42:47;;;;;;;2.38;2.10;;;;;;;;;;5104264;28;20242;-83
2022/09/04 14:45:32;;;;;;;2.58;2.10;;;;;;;;;;5102413;28;20229;-83
2022/09/04 14:48:02;;;;;;;2.88;2.00;;;;;;;;;;5110035;28;20297;-83
2022/09/04 14:50:32;;;;;;;2.75;1.80;;;;;;;;;;5094517;28;20205;-83
2022/09/04 14:53:03;;;;;;;3.08;2.00;;;;;;;;;;5101054;28;20198;-83
2022/09/04 14:55:32;;;;;;;2.70;2.13;;;;;;;;;;5094035;28;20203;-83
2022/09/04 14:58:02;;;;;;;2.78;2.05;;;;;;;;;;5094921;28;20269;-84
2022/09/04 15:00:32;;;;;;;4.07;2.10;;;;;;;;;;5098078;28;20267;-83
2022/09/04 15:03:02;;;;;;;2.60;1.92;;;;;;;;;;5093940;28;20257;-83
2022/09/04 15:05:32;;;;;;;4.15;2.03;;;;;;;;;;5099673;28;20191;-83
2022/09/04 15:08:04;;;;;;;3.70;2.10;;;;;;;;;;5078560;28;20200;-83
2022/09/04 15:10:34;;;;;;;3.05;2.28;;;;;;;;;;5094885;28;20201;-83
2022/09/04 15:13:23;;;;;;;3.38;2.10;;;;;;;;;;5095293;28;20691;-83
2022/09/04 15:15:53;;;;;;;2.90;2.20;;;;;;;;;;5111849;28;20194;-83
2022/09/04 15:18:23;;;;;;;2.97;2.10;;;;;;;;;;5112840;28;20266;-84
2022/09/04 15:20:55;;;;;;;2.95;2.10;;;;;;;;;;5108390;28;20753;-83
2022/09/04 15:23:27;;;;;;;3.65;1.98;;;;;;;;;;5112834;28;20252;-83
2022/09/04 15:26:02;;;;;;;4.72;2.20;;;;;;;;;;5095170;28;20277;-83
2022/09/04 15:28:33;;;;;;;5.40;2.65;;;;;;;;;;5094408;28;20629;-83
2022/09/04 15:31:03;;;;;;;3.97;2.20;;;;;;;;;;5098334;28;20294;-84
2022/09/04 15:33:31;;;;;;;3.28;2.22;;;;;;;;;;5113914;28;20221;-82
2022/09/04 15:36:06;;;;;;;3.63;2.40;;;;;;;;;;5103503;28;20248;-83
2022/09/04 15:38:35;;;;;;;2.95;2.00;;;;;;;;;;5099459;28;20212;-84